Nabire, Nabire Airport (WABI)

NameNabire Airport
CityNabire
CountryIndonesia
ICAOWABI
IATANBX
Altitude6 m
CoordinatesGoogle Map
Live Air TrafficLiveATC.net
METARWABI 312200Z 19006KT 7000 FEW016 24/22 Q1011
2018-08-31 22:00:00 Wind: South (190°) 3.09 m/s - Visibility: 7000 m - Temperature: 24 °C - Dew point: 22 °C - Humidity: 88.6% - Pressure: 1011 hPa

Sorry, no flights used the airport in this database.